createdAt,value
2018-08-09T00:00:19.545Z,101211.10
2018-08-09T00:02:49.009Z,101211.11
2018-08-09T00:05:18.474Z,101218.41
2018-08-09T00:08:50.892Z,101213.72
2018-08-09T00:11:20.346Z,101225.19
2018-08-09T00:13:49.754Z,101221.74
2018-08-09T00:16:19.186Z,101216.71
2018-08-09T00:18:48.432Z,101218.84
2018-08-09T00:21:17.719Z,101215.28
2018-08-09T00:23:47.414Z,101214.83
2018-08-09T00:26:17.026Z,101215.50
2018-08-09T00:28:46.590Z,101217.55
2018-08-09T00:31:17.030Z,101219.14
2018-08-09T00:33:46.509Z,101226.94
2018-08-09T00:36:15.778Z,101223.84
2018-08-09T00:38:45.079Z,101226.55
2018-08-09T00:41:14.394Z,101230.95
2018-08-09T00:43:43.909Z,101231.92
2018-08-09T00:46:13.309Z,101237.68
2018-08-09T00:48:42.552Z,101234.45
2018-08-09T00:51:11.760Z,101233.20
2018-08-09T00:53:41.142Z,101229.03
2018-08-09T00:56:10.430Z,101233.78
2018-08-09T00:58:39.636Z,101231.33
2018-08-09T01:01:09.630Z,101230.37
2018-08-09T01:03:38.921Z,101230.02
2018-08-09T01:06:08.149Z,101238.16
2018-08-09T01:08:38.009Z,101225.12
2018-08-09T01:11:07.641Z,101221.22
2018-08-09T01:13:36.913Z,101220.81
2018-08-09T01:16:06.171Z,101215.66
2018-08-09T01:18:35.514Z,101215.63
2018-08-09T01:21:04.888Z,101225.66
2018-08-09T01:23:34.405Z,101226.84
2018-08-09T01:26:03.703Z,101226.99
2018-08-09T01:28:32.924Z,101229.52
2018-08-09T01:31:02.779Z,101232.09
2018-08-09T01:33:32.243Z,101229.56
2018-08-09T01:36:01.541Z,101231.00
2018-08-09T01:38:30.932Z,101226.14
2018-08-09T01:41:00.306Z,101221.84
2018-08-09T01:43:41.178Z,101220.32
2018-08-09T01:46:10.525Z,101227.75
2018-08-09T01:48:39.720Z,101216.26
2018-08-09T01:51:09.596Z,101225.29
2018-08-09T01:53:38.841Z,101229.17
2018-08-09T01:56:08.057Z,101220.41
2018-08-09T01:58:37.382Z,101228.88
2018-08-09T02:01:06.657Z,101227.27
2018-08-09T02:03:35.882Z,101232.67
2018-08-09T02:06:05.980Z,101225.84
2018-08-09T02:08:35.306Z,101226.16
2018-08-09T02:11:04.501Z,101222.42
2018-08-09T02:13:33.778Z,101234.89
2018-08-09T02:16:03.144Z,101231.41
2018-08-09T02:18:32.460Z,101230.98
2018-08-09T02:21:02.153Z,101229.20
2018-08-09T02:23:31.397Z,101230.44
2018-08-09T02:26:00.907Z,101228.72
2018-08-09T02:28:30.401Z,101234.80
2018-08-09T02:31:00.072Z,101234.00
2018-08-09T02:33:29.530Z,101231.86
2018-08-09T02:35:58.998Z,101227.27
2018-08-09T02:38:28.359Z,101236.52
2018-08-09T02:40:57.794Z,101240.23
2018-08-09T02:43:27.918Z,101243.60
2018-08-09T02:45:57.219Z,101240.67
2018-08-09T02:48:26.827Z,101242.30
2018-08-09T02:50:56.357Z,101250.08
2018-08-09T02:53:25.903Z,101246.83
2018-08-09T02:55:55.462Z,101244.63
2018-08-09T02:58:25.637Z,101238.95
2018-08-09T03:00:55.017Z,101242.00
2018-08-09T03:03:24.524Z,101246.02
2018-08-09T03:05:54.850Z,101248.03
2018-08-09T03:08:24.725Z,101249.73
2018-08-09T03:10:54.173Z,101259.86
2018-08-09T03:13:23.734Z,101269.34
2018-08-09T03:15:53.077Z,101269.73
2018-08-09T03:18:22.381Z,101267.72
2018-08-09T03:20:52.503Z,101268.22
2018-08-09T03:23:22.040Z,101265.13
2018-08-09T03:25:51.701Z,101269.34
2018-08-09T03:28:21.500Z,101267.60
2018-08-09T03:30:51.531Z,101269.57
2018-08-09T03:33:21.159Z,101265.39
2018-08-09T03:35:50.822Z,101264.19
2018-08-09T03:38:20.061Z,101264.23
2018-08-09T03:40:50.506Z,101262.95
2018-08-09T03:43:19.952Z,101265.70
2018-08-09T03:45:49.688Z,101261.14
2018-08-09T03:48:18.921Z,101264.66
2018-08-09T03:50:48.441Z,101264.46
2018-08-09T03:53:17.727Z,101258.28
2018-08-09T03:55:47.030Z,101257.23
2018-08-09T03:58:17.435Z,101257.45
2018-08-09T04:00:48.199Z,101259.94
2018-08-09T04:03:17.561Z,101261.74
2018-08-09T04:05:46.857Z,101257.41
2018-08-09T04:08:16.233Z,101265.58
2018-08-09T04:10:46.312Z,101268.28
2018-08-09T04:13:15.532Z,101265.88
2018-08-09T04:15:44.936Z,101262.70
2018-08-09T04:18:14.165Z,101261.02
2018-08-09T04:20:43.513Z,101259.98
2018-08-09T04:23:12.781Z,101268.52
2018-08-09T04:25:42.033Z,101269.22
2018-08-09T04:28:11.397Z,101268.41
2018-08-09T04:30:40.658Z,101268.18
2018-08-09T04:33:09.905Z,101269.99
2018-08-09T04:35:39.458Z,101263.84
2018-08-09T04:38:08.675Z,101264.58
2018-08-09T04:40:37.884Z,101271.23
2018-08-09T04:43:07.409Z,101264.11
2018-08-09T04:45:36.817Z,101266.23
2018-08-09T04:48:06.309Z,101265.33
2018-08-09T04:50:36.457Z,101265.61
2018-08-09T04:53:05.685Z,101276.41
2018-08-09T04:55:34.954Z,101274.59
2018-08-09T04:58:05.073Z,101278.45
2018-08-09T05:00:34.288Z,101279.22
2018-08-09T05:03:03.654Z,101290.50
2018-08-09T05:05:33.559Z,101289.23
2018-08-09T05:08:03.301Z,101290.05
2018-08-09T05:10:32.918Z,101291.20
2018-08-09T05:13:02.220Z,101289.84
2018-08-09T05:15:32.479Z,101294.04
2018-08-09T05:18:01.897Z,101298.73
2018-08-09T05:20:32.638Z,101298.80
2018-08-09T05:23:01.992Z,101288.53
2018-08-09T05:25:31.320Z,101292.81
2018-08-09T05:28:01.459Z,101295.05
2018-08-09T05:30:30.942Z,101287.40
2018-08-09T05:33:00.430Z,101292.53
2018-08-09T05:35:29.758Z,101294.55
2018-08-09T05:37:59.101Z,101305.36
2018-08-09T05:40:28.407Z,101303.12
2018-08-09T05:43:00.128Z,101300.02
2018-08-09T05:45:29.455Z,101298.91
2018-08-09T05:47:58.819Z,101292.45
2018-08-09T05:50:28.466Z,101292.91
2018-08-09T05:52:57.886Z,101292.77
2018-08-09T05:55:27.260Z,101295.59
2018-08-09T05:57:56.812Z,101293.95
2018-08-09T06:00:26.383Z,101301.09
2018-08-09T06:02:55.727Z,101305.69
2018-08-09T06:05:25.312Z,101297.05
2018-08-09T06:07:54.911Z,101299.05
2018-08-09T06:10:24.366Z,101308.37
2018-08-09T06:12:54.310Z,101315.91
2018-08-09T06:15:23.662Z,101314.57
2018-08-09T06:17:53.224Z,101319.06
2018-08-09T06:20:23.381Z,101317.64
2018-08-09T06:22:52.790Z,101317.38
2018-08-09T06:25:22.584Z,101330.24
2018-08-09T06:27:51.993Z,101341.28
2018-08-09T06:30:22.577Z,101340.31
2018-08-09T06:32:52.209Z,101328.69
2018-08-09T06:35:21.861Z,101334.97
2018-08-09T06:37:51.888Z,101327.59
2018-08-09T06:40:21.346Z,101326.62
2018-08-09T06:42:51.926Z,101325.06
2018-08-09T06:45:21.602Z,101333.73
2018-08-09T06:47:51.487Z,101337.78
2018-08-09T06:50:21.792Z,101330.19
2018-08-09T06:52:51.600Z,101325.28
2018-08-09T06:55:21.948Z,101316.45
2018-08-09T06:57:51.451Z,101327.49
2018-08-09T07:00:21.230Z,101330.73
2018-08-09T07:02:52.457Z,101334.84
2018-08-09T07:05:22.606Z,101339.23
2018-08-09T07:07:52.595Z,101343.76
2018-08-09T07:10:22.593Z,101346.35
2018-08-09T07:12:52.309Z,101344.00
2018-08-09T07:15:21.795Z,101349.09
2018-08-09T07:17:52.096Z,101344.36
2018-08-09T07:20:21.548Z,101334.83
2018-08-09T07:22:51.253Z,101344.01
2018-08-09T07:25:20.787Z,101339.06
2018-08-09T07:27:50.230Z,101338.91
2018-08-09T07:30:19.628Z,101337.86
2018-08-09T07:32:50.722Z,101338.33
2018-08-09T07:35:20.113Z,101350.44
2018-08-09T07:37:50.373Z,101341.01
2018-08-09T07:40:19.953Z,101341.20
2018-08-09T07:42:49.257Z,101341.78
2018-08-09T07:45:18.832Z,101343.44
2018-08-09T07:47:49.289Z,101336.96
2018-08-09T07:50:18.570Z,101331.16
2018-08-09T07:52:47.880Z,101326.14
2018-08-09T07:55:17.353Z,101329.80
2018-08-09T07:57:46.644Z,101328.66
2018-08-09T08:00:17.014Z,101324.20
2018-08-09T08:02:47.829Z,101323.88
2018-08-09T08:05:17.082Z,101326.39
2018-08-09T08:07:46.409Z,101323.25
2018-08-09T08:10:15.725Z,101317.65
2018-08-09T08:12:45.155Z,101307.80
2018-08-09T08:15:14.453Z,101304.39
2018-08-09T08:17:44.966Z,101298.55
2018-08-09T08:20:14.265Z,101293.84
2018-08-09T08:22:43.677Z,101284.23
2018-08-09T08:25:13.145Z,101287.16
2018-08-09T08:27:42.366Z,101272.00
2018-08-09T08:30:13.459Z,101272.61
2018-08-09T08:32:43.408Z,101272.47
2018-08-09T08:35:12.809Z,101264.82
2018-08-09T08:37:42.244Z,101254.13
2018-08-09T08:40:13.600Z,101266.61
2018-08-09T08:42:43.069Z,101269.05
2018-08-09T08:45:13.840Z,101266.25
2018-08-09T08:47:43.717Z,101270.52
2018-08-09T08:50:13.321Z,101266.95
2018-08-09T08:52:42.884Z,101264.32
2018-08-09T08:55:12.785Z,101260.61
2018-08-09T08:57:42.007Z,101265.30
2018-08-09T09:00:12.435Z,101252.06
2018-08-09T09:02:41.951Z,101248.08
2018-08-09T09:05:12.649Z,101241.80
2018-08-09T09:07:41.820Z,101235.63
2018-08-09T09:10:12.735Z,101233.40
2018-08-09T09:12:41.978Z,101231.05
2018-08-09T09:15:13.712Z,101241.27
2018-08-09T09:17:43.984Z,101250.77
2018-08-09T09:20:16.353Z,101241.48
2018-08-09T09:22:45.780Z,101232.12
2018-08-09T09:25:15.083Z,101230.81
2018-08-09T09:27:44.338Z,101235.19
2018-08-09T09:30:15.105Z,101237.20
2018-08-09T09:32:44.879Z,101239.99
2018-08-09T09:35:14.386Z,101238.36
2018-08-09T09:37:43.922Z,101243.88
2018-08-09T09:40:13.368Z,101242.44
2018-08-09T09:42:43.420Z,101245.22
2018-08-09T09:45:12.759Z,101238.72
2018-08-09T09:47:42.005Z,101241.97
2018-08-09T09:50:12.575Z,101238.25
2018-08-09T09:52:41.810Z,101239.03
2018-08-09T09:55:11.137Z,101244.30
2018-08-09T09:57:40.445Z,101231.19
2018-08-09T10:00:15.948Z,101226.50
2018-08-09T10:02:45.732Z,101224.83
2018-08-09T10:05:15.370Z,101221.83
2018-08-09T10:07:44.643Z,101222.05
2018-08-09T10:10:13.987Z,101220.92
2018-08-09T10:12:43.426Z,101205.24
2018-08-09T10:15:12.936Z,101209.95
2018-08-09T10:17:42.619Z,101197.95
2018-08-09T10:20:11.912Z,101199.75
2018-08-09T10:22:41.205Z,101191.06
2018-08-09T10:25:10.815Z,101187.48
2018-08-09T10:27:40.137Z,101173.75
2018-08-09T10:30:09.602Z,101175.67
2018-08-09T10:32:39.209Z,101173.78
2018-08-09T10:35:08.613Z,101174.97
2018-08-09T10:37:38.484Z,101177.40
2018-08-09T10:40:08.710Z,101171.59
2018-08-09T10:42:38.475Z,101161.13
2018-08-09T10:45:07.797Z,101158.14
2018-08-09T10:47:37.507Z,101161.11
2018-08-09T10:50:07.730Z,101171.42
2018-08-09T10:55:21.733Z,101169.34
2018-08-09T10:57:51.453Z,101164.88
2018-08-09T11:00:21.451Z,101163.03
2018-08-09T11:02:53.402Z,101155.42
2018-08-09T11:05:24.023Z,101157.44
2018-08-09T11:07:53.561Z,101155.97
2018-08-09T11:10:23.548Z,101157.70
2018-08-09T11:12:53.798Z,101150.66
2018-08-09T11:15:24.487Z,101154.37
2018-08-09T11:17:54.299Z,101149.97
2018-08-09T11:20:23.842Z,101147.97
2018-08-09T11:22:53.572Z,101149.91
2018-08-09T11:25:23.438Z,101146.70
2018-08-09T11:27:53.318Z,101141.66
2018-08-09T11:30:23.178Z,101146.69
2018-08-09T11:32:53.046Z,101142.66
2018-08-09T11:35:22.500Z,101133.80
2018-08-09T11:37:52.493Z,101129.33
2018-08-09T11:40:23.104Z,101128.22
2018-08-09T11:42:52.487Z,101123.14
2018-08-09T11:45:22.805Z,101124.03
2018-08-09T11:47:53.284Z,101114.81
2018-08-09T11:50:22.791Z,101114.43
2018-08-09T11:52:52.492Z,101110.86
2018-08-09T11:55:21.937Z,101106.77
2018-08-09T11:57:51.305Z,101098.00
2018-08-09T12:00:21.681Z,101103.38
2018-08-09T12:02:51.132Z,101100.95
2018-08-09T12:05:21.351Z,101090.35
2018-08-09T12:07:50.778Z,101091.72
2018-08-09T12:10:20.444Z,101083.54
2018-08-09T12:12:50.389Z,101072.36
2018-08-09T12:15:19.930Z,101074.47
2018-08-09T12:17:49.308Z,101067.16
2018-08-09T12:20:18.622Z,101068.59
2018-08-09T12:22:48.685Z,101066.52
2018-08-09T12:25:17.925Z,101063.08
2018-08-09T12:27:47.262Z,101053.82
2018-08-09T12:30:18.416Z,101047.25
2018-08-09T12:32:47.813Z,101041.30
2018-08-09T12:35:17.831Z,101038.52
2018-08-09T12:37:47.293Z,101033.56
2018-08-09T12:40:16.688Z,101040.23
2018-08-09T12:42:46.749Z,101026.00
2018-08-09T12:45:16.253Z,101022.61
2018-08-09T12:47:45.640Z,101021.90
2018-08-09T12:50:15.349Z,101018.19
2018-08-09T12:52:45.433Z,101007.20
2018-08-09T12:55:15.300Z,100987.20
2018-08-09T12:57:44.672Z,100978.18
2018-08-09T13:00:14.760Z,100989.11
2018-08-09T13:02:43.976Z,100973.00
2018-08-09T13:05:13.388Z,100970.56
2018-08-09T13:07:43.278Z,100968.05
2018-08-09T13:10:13.539Z,100966.66
2018-08-09T13:12:42.815Z,100970.59
2018-08-09T13:15:13.708Z,100972.52
2018-08-09T13:17:44.573Z,100972.83
2018-08-09T13:20:17.970Z,100977.91
2018-08-09T13:22:49.871Z,100970.08
2018-08-09T13:25:19.298Z,100971.33
2018-08-09T13:27:49.067Z,100975.34
2018-08-09T13:30:19.083Z,100969.86
2018-08-09T13:32:48.381Z,100956.58
2018-08-09T13:35:17.815Z,100948.20
2018-08-09T13:37:47.234Z,100944.73
2018-08-09T13:40:18.390Z,100931.53
2018-08-09T13:42:47.734Z,100922.16
2018-08-09T13:45:17.672Z,100923.91
2018-08-09T13:47:47.007Z,100910.03
2018-08-09T13:50:16.289Z,100904.16
2018-08-09T13:52:46.166Z,100897.20
2018-08-09T13:55:15.913Z,100897.06
2018-08-09T13:57:45.497Z,100892.03
2018-08-09T14:00:15.058Z,100889.56
2018-08-09T14:02:45.677Z,100890.05
2018-08-09T14:05:14.937Z,100881.16
2018-08-09T14:07:45.335Z,100866.66
2018-08-09T14:10:14.630Z,100865.28
2018-08-09T14:12:44.078Z,100869.78
2018-08-09T14:15:15.149Z,100868.83
2018-08-09T14:17:44.473Z,100860.35
2018-08-09T14:20:16.754Z,100846.84
2018-08-09T14:22:46.152Z,100837.11
2018-08-09T14:25:15.559Z,100836.12
2018-08-09T14:27:45.389Z,100823.73
2018-08-09T14:30:16.092Z,100827.84
2018-08-09T14:32:47.357Z,100809.75
2018-08-09T14:35:17.446Z,100798.27
2018-08-09T14:37:47.896Z,100795.63
2018-08-09T14:40:17.356Z,100795.50
2018-08-09T14:42:47.329Z,100795.34
2018-08-09T14:45:17.150Z,100798.75
2018-08-09T14:47:46.641Z,100791.35
2018-08-09T14:50:16.356Z,100782.13
2018-08-09T14:52:45.800Z,100773.38
2018-08-09T14:55:15.348Z,100758.69
2018-08-09T14:57:44.686Z,100751.37
2018-08-09T15:00:17.543Z,100741.06
2018-08-09T15:02:50.209Z,100735.77
2018-08-09T15:05:20.517Z,100744.20
2018-08-09T15:07:51.048Z,100731.31
2018-08-09T15:10:20.578Z,100726.28
2018-08-09T15:12:49.957Z,100728.68
2018-08-09T15:15:20.502Z,100727.67
2018-08-09T15:17:52.676Z,100721.42
2018-08-09T15:20:23.358Z,100717.41
2018-08-09T15:22:53.486Z,100713.33
2018-08-09T15:25:23.353Z,100705.41
2018-08-09T15:27:54.048Z,100688.20
2018-08-09T15:30:23.982Z,100676.38
2018-08-09T15:32:53.843Z,100668.51
2018-08-09T15:35:24.686Z,100661.75
2018-08-09T15:37:55.878Z,100663.40
2018-08-09T15:40:25.395Z,100658.70
2018-08-09T15:42:54.927Z,100651.70
2018-08-09T15:45:25.721Z,100640.56
2018-08-09T15:47:56.287Z,100649.31
2018-08-09T15:50:25.747Z,100646.45
2018-08-09T15:52:55.852Z,100639.89
2018-08-09T15:55:25.249Z,100637.58
2018-08-09T15:57:55.352Z,100628.25
2018-08-09T16:00:25.174Z,100620.97
2018-08-09T16:02:55.289Z,100613.20
2018-08-09T16:05:25.384Z,100618.95
2018-08-09T16:07:56.954Z,100603.33
2018-08-09T16:10:27.102Z,100598.16
2018-08-09T16:12:56.644Z,100594.20
2018-08-09T16:15:27.354Z,100586.09
2018-08-09T16:17:57.157Z,100573.13
2018-08-09T16:20:26.692Z,100564.23
2018-08-09T16:22:57.693Z,100558.38
2018-08-09T16:25:27.633Z,100551.80
2018-08-09T16:27:57.215Z,100549.08
2018-08-09T16:30:29.430Z,100539.87
2018-08-09T16:32:58.852Z,100532.94
2018-08-09T16:35:28.557Z,100528.78
2018-08-09T16:37:58.662Z,100522.18
2018-08-09T16:40:28.408Z,100516.62
2018-08-09T16:42:58.673Z,100520.97
2018-08-09T16:45:30.140Z,100517.03
2018-08-09T16:47:59.996Z,100521.36
2018-08-09T16:50:33.378Z,100522.64
2018-08-09T16:53:04.589Z,100513.68
2018-08-09T16:55:34.857Z,100509.41
2018-08-09T16:58:04.906Z,100492.52
2018-08-09T17:00:35.626Z,100494.58
2018-08-09T17:03:05.083Z,100494.99
2018-08-09T17:05:34.496Z,100494.60
2018-08-09T17:08:05.288Z,100500.16
2018-08-09T17:10:34.780Z,100501.94
2018-08-09T17:13:04.090Z,100500.92
2018-08-09T17:15:33.960Z,100493.06
2018-08-09T17:18:03.307Z,100486.75
2018-08-09T17:20:33.755Z,100473.78
2018-08-09T17:23:04.695Z,100482.43
2018-08-09T17:25:33.996Z,100476.33
2018-08-09T17:28:03.395Z,100469.41
2018-08-09T17:30:33.203Z,100448.49
2018-08-09T17:33:03.799Z,100420.52
2018-08-09T17:35:33.130Z,100404.73
2018-08-09T17:38:02.592Z,100398.22
2018-08-09T17:40:33.364Z,100378.45
2018-08-09T17:43:04.296Z,100355.03
2018-08-09T17:45:34.776Z,100331.75
2018-08-09T17:48:05.813Z,100323.16
2018-08-09T17:50:35.287Z,100336.61
2018-08-09T17:53:07.622Z,100328.94
2018-08-09T17:55:36.858Z,100336.00
2018-08-09T17:58:06.347Z,100346.93
2018-08-09T18:00:36.421Z,100353.77
2018-08-09T18:03:06.025Z,100362.92
2018-08-09T18:05:35.556Z,100373.02
2018-08-09T18:08:06.741Z,100356.94
2018-08-09T18:10:38.137Z,100354.20
2018-08-09T18:13:07.415Z,100349.66
2018-08-09T18:15:36.660Z,100371.22
2018-08-09T18:18:06.257Z,100388.28
2018-08-09T18:20:36.945Z,100383.86
2018-08-09T18:23:06.408Z,100376.94
2018-08-09T18:25:35.734Z,100388.92
2018-08-09T18:28:05.597Z,100487.71
2018-08-09T18:30:34.983Z,100515.14
2018-08-09T18:33:04.413Z,100501.06
2018-08-09T18:35:33.697Z,100473.62
2018-08-09T18:38:04.308Z,100472.80
2018-08-09T18:40:34.829Z,100530.72
2018-08-09T18:43:04.322Z,100550.48
2018-08-09T18:45:34.256Z,100527.38
2018-08-09T18:48:04.709Z,100521.12
2018-08-09T18:50:34.943Z,100523.50
2018-08-09T18:53:04.345Z,100532.75
2018-08-09T18:55:33.726Z,100521.81
2018-08-09T18:58:03.697Z,100500.84
2018-08-09T19:00:33.865Z,100490.86
2018-08-09T19:03:03.159Z,100506.67
2018-08-09T19:05:34.526Z,100521.80
2018-08-09T19:08:04.199Z,100532.66
2018-08-09T19:10:35.713Z,100548.49
2018-08-09T19:13:05.104Z,100532.06
2018-08-09T19:15:40.203Z,100520.62
2018-08-09T19:18:09.559Z,100518.45
2018-08-09T19:20:40.054Z,100519.39
2018-08-09T19:23:09.529Z,100519.63
2018-08-09T19:25:38.994Z,100518.02
2018-08-09T19:28:09.877Z,100517.36
2018-08-09T19:30:46.590Z,100513.54
2018-08-09T19:33:16.652Z,100509.84
2018-08-09T19:35:51.963Z,100515.07
2018-08-09T19:38:23.426Z,100512.70
2018-08-09T19:40:53.518Z,100506.59
2018-08-09T19:43:24.312Z,100502.32
2018-08-09T19:46:00.524Z,100495.80
2018-08-09T19:48:44.917Z,100497.16
2018-08-09T19:51:16.165Z,100486.02
2018-08-09T19:53:45.457Z,100482.28
2018-08-09T19:56:15.275Z,100469.56
2018-08-09T19:58:45.295Z,100461.63
2018-08-09T20:01:14.590Z,100448.98
2018-08-09T20:03:45.409Z,100449.16
2018-08-09T20:06:16.555Z,100441.11
2018-08-09T20:08:46.761Z,100424.94
2018-08-09T20:11:17.706Z,100425.87
2018-08-09T20:13:47.291Z,100425.79
2018-08-09T20:16:16.585Z,100418.18
2018-08-09T20:18:46.121Z,100425.22
2018-08-09T20:21:15.440Z,100417.94
2018-08-09T20:23:46.520Z,100423.37
2018-08-09T20:26:16.101Z,100415.28
2018-08-09T20:28:51.037Z,100410.55
2018-08-09T20:31:20.354Z,100411.61
2018-08-09T20:33:50.263Z,100412.45
2018-08-09T20:36:20.345Z,100425.75
2018-08-09T20:38:49.988Z,100421.03
2018-08-09T20:41:19.371Z,100415.09
2018-08-09T20:43:50.440Z,100419.69
2018-08-09T20:46:19.907Z,100419.16
2018-08-09T20:48:49.499Z,100428.98
2018-08-09T20:51:18.888Z,100418.14
2018-08-09T20:53:48.283Z,100425.69
2018-08-09T20:56:17.565Z,100412.77
2018-08-09T20:58:46.951Z,100425.50
2018-08-09T21:01:16.417Z,100422.64
2018-08-09T21:03:45.678Z,100422.63
2018-08-09T21:06:15.033Z,100425.72
2018-08-09T21:08:44.454Z,100427.13
2018-08-09T21:11:13.985Z,100428.81
2018-08-09T21:13:43.378Z,100429.02
2018-08-09T21:16:14.213Z,100432.91
2018-08-09T21:18:43.453Z,100426.82
2018-08-09T21:21:12.714Z,100432.63
2018-08-09T21:23:42.520Z,100428.17
2018-08-09T21:26:11.833Z,100426.68
2018-08-09T21:28:41.078Z,100422.94
2018-08-09T21:31:10.442Z,100422.09
2018-08-09T21:33:39.841Z,100420.59
2018-08-09T21:36:10.186Z,100401.41
2018-08-09T21:46:12.119Z,100393.98
2018-08-09T21:48:41.430Z,100396.35
2018-08-09T21:51:11.481Z,100401.08
2018-08-09T21:53:40.932Z,100404.13
2018-08-09T21:56:10.392Z,100405.34
2018-08-09T21:58:39.714Z,100405.35
2018-08-09T22:01:09.470Z,100406.01
2018-08-09T22:03:41.755Z,100411.62
2018-08-09T22:06:16.646Z,100400.44
2018-08-09T22:08:51.274Z,100402.13
2018-08-09T22:11:25.966Z,100402.83
2018-08-09T22:14:01.017Z,100405.02
2018-08-09T22:16:35.779Z,100403.86
2018-08-09T22:19:10.306Z,100404.84
2018-08-09T22:21:44.914Z,100404.88
2018-08-09T22:24:14.173Z,100402.31
2018-08-09T22:26:43.449Z,100401.47
2018-08-09T22:29:13.419Z,100399.59
2018-08-09T22:31:42.657Z,100405.59
2018-08-09T22:34:12.535Z,100411.36
2018-08-09T22:36:41.921Z,100404.23
2018-08-09T22:39:11.228Z,100389.63
2018-08-09T22:41:40.475Z,100390.94
2018-08-09T22:44:10.199Z,100388.88
2018-08-09T22:46:39.648Z,100390.98
2018-08-09T22:49:08.931Z,100385.70
2018-08-09T22:51:39.167Z,100388.23
2018-08-09T22:54:08.568Z,100376.38
2018-08-09T22:56:37.837Z,100365.48
2018-08-09T22:59:07.892Z,100371.28
2018-08-09T23:01:37.196Z,100381.77
2018-08-09T23:04:06.549Z,100393.64
2018-08-09T23:06:35.868Z,100382.61
2018-08-09T23:09:08.558Z,100387.31
2018-08-09T23:11:38.416Z,100389.28
2018-08-09T23:14:07.804Z,100391.13
2018-08-09T23:16:37.160Z,100395.86
2018-08-09T23:19:06.565Z,100385.32
2018-08-09T23:21:35.869Z,100376.39
2018-08-09T23:24:05.264Z,100380.13
2018-08-09T23:26:35.948Z,100375.36
2018-08-09T23:29:05.463Z,100378.16
2018-08-09T23:31:34.787Z,100387.38
2018-08-09T23:34:04.179Z,100378.53
2018-08-09T23:36:33.542Z,100371.09
2018-08-09T23:39:02.889Z,100373.43
2018-08-09T23:41:33.434Z,100377.88
2018-08-09T23:44:02.737Z,100365.34
2018-08-09T23:46:32.093Z,100365.69
2018-08-09T23:49:02.235Z,100368.07
2018-08-09T23:51:31.747Z,100365.03
2018-08-09T23:54:01.082Z,100376.97
2018-08-09T23:56:30.965Z,100366.44
2018-08-09T23:59:00.372Z,100353.33
